Flight Track Log - Related Links

Times and Time Zones

All times are in EDT time to prevent confusion due to time zone crossing. See the N670MW flight status page for this flight to view local times or setup timezone preferences in your user account.

Time Position Orientation Groundspeed Altitude Reporting Facility
EDT Latitude Longitude Course Direction KTS MPH feet Rate Location/Type
Tue 02:30:36 PM 44.8839 -93.0850 83° East 240 276 5,800  Level Minneapolis Center
Tue 02:31:38 PM 44.9650 -93.0836 North 297 342 9,300 3,629 Climbing Minneapolis Center
Tue 02:32:40 PM 45.0444 -93.0950 354° North 291 335 13,300 3,677 Climbing Minneapolis Center
Tue 02:33:42 PM 45.1461 -93.1072 355° North 307 353 16,900 3,317 Climbing Minneapolis Center
Tue 02:34:43 PM 45.2322 -93.1481 342° North 322 371 20,100 3,024 Climbing Minneapolis Center
Tue 02:35:45 PM 45.3186 -93.1986 338° Northwest 333 383 23,100 2,903 Climbing Minneapolis Center
Tue 02:36:47 PM 45.4081 -93.2478 339° North 341 392 26,100 2,565 Climbing Minneapolis Center
Tue 02:37:49 PM 45.4981 -93.2972 339° North 343 395 28,400 2,081 Climbing Minneapolis Center
Tue 02:38:51 PM 45.5947 -93.3511 339° North 364 419 30,400 1,756 Climbing Minneapolis Center
Tue 02:39:52 PM 45.6942 -93.4067 339° North 378 435 32,000 780 Climbing Minneapolis Center
Tue 02:40:54 PM 45.8247 -93.4803 339° North 421 484 32,000  Level Minneapolis Center
Tue 02:41:56 PM 45.9392 -93.5456 338° Northwest 440 506 32,000  Level Minneapolis Center
Tue 02:42:58 PM 46.0525 -93.6089 339° North 440 506 32,000  Level Minneapolis Center
Tue 02:43:59 PM 46.1656 -93.6731 339° North 440 506 32,000  Level Minneapolis Center
Tue 02:45:01 PM 46.2922 -93.7464 338° Northwest 440 506 32,000  Level Minneapolis Center
Tue 02:46:03 PM 46.4053 -93.8103 339° North 440 506 32,000  Level Minneapolis Center
Tue 02:47:05 PM 46.5175 -93.8758 338° Northwest 439 505 32,000 -49 Level Minneapolis Center
Tue 02:48:06 PM 46.6303 -93.9411 338° Northwest 438 504 31,900  Descending Minneapolis Center
Tue 02:49:08 PM 46.7417 -94.0067 338° Northwest 437 503 32,000 48 Climbing Minneapolis Center
Tue 02:50:10 PM 46.8539 -94.0739 338° Northwest 435 501 32,000 -49 Level Minneapolis Center
Tue 02:51:11 PM 46.9667 -94.1364 339° North 435 501 31,900 -49 Descending Minneapolis Center
Tue 02:52:13 PM 47.0789 -94.2003 339° North 435 501 31,900 -871 Level Minneapolis Center
Tue 02:53:15 PM 47.2086 -94.2811 337° Northwest 425 489 30,100 -1,610 Descending Minneapolis Center
Tue 02:54:16 PM 47.3150 -94.3458 338° Northwest 419 482 28,600 -1,366 Descending Minneapolis Center
Tue 02:55:18 PM 47.4258 -94.4119 338° Northwest 421 484 27,300 -1,306 Descending Minneapolis Center
Tue 02:56:20 PM 47.5400 -94.4797 338° Northwest 433 498 25,900 -1,317 Descending Minneapolis Center
Tue 02:57:21 PM 47.6542 -94.5483 338° Northwest 439 505 24,600 -1,512 Descending Minneapolis Center
Tue 02:58:23 PM 47.7608 -94.6139 338° Northwest 428 493 22,800 -1,742 Descending Minneapolis Center
Tue 02:59:25 PM 47.8614 -94.6767 337° Northwest 406 467 21,000 -1,659 Descending Minneapolis Center
Tue 03:00:26 PM 47.9592 -94.7344 338° Northwest 389 448 19,400 -1,854 Descending Minneapolis Center
Tue 03:01:28 PM 48.0725 -94.8042 338° Northwest 375 432 17,200 -1,935 Descending Minneapolis Center
Tue 03:02:30 PM 48.1672 -94.8622 338° Northwest 373 429 15,400 -1,951 Descending Minneapolis Center
Tue 03:03:31 PM 48.2569 -94.9203 337° Northwest 361 415 13,200 -1,854 Descending Minneapolis Center
Tue 03:04:33 PM 48.3433 -94.9719 338° Northwest 344 396 11,600 -1,561 Descending Minneapolis Center
Tue 03:05:34 PM 48.4228 -95.0247 336° Northwest 323 372 10,000 -1,463 Descending Minneapolis Center
Tue 03:06:36 PM 48.4975 -95.0694 338° Northwest 301 346 8,600 -1,463 Descending Minneapolis Center
Tue 03:07:37 PM 48.5689 -95.1089 340° North 286 329 7,000 -1,574 Descending Minneapolis Center
Tue 03:09:00 PM 48.6866 -95.1814 340° North  Level FlightAware Approximate
Tue 03:16:00 PM 48.9333 -95.3333 342° North  Level FlightAware Approximate
Tue 03:17:00 PM 48.9415 -95.3485 342° North  Level Estimated
Tue 03:18:00 PM 48.9415 -95.3485 342° North  Level Estimated

Login

Don't have an account? Register now (free) for customized features, flight alerts, and more!